createdAt,value
2022-10-13T00:00:02.657Z,1021.72
2022-10-13T00:01:02.694Z,1021.71
2022-10-13T00:02:02.638Z,1021.74
2022-10-13T00:03:02.628Z,1021.69
2022-10-13T00:04:02.708Z,1021.70
2022-10-13T00:05:02.754Z,1021.69
2022-10-13T00:06:02.606Z,1021.66
2022-10-13T00:07:02.619Z,1021.72
2022-10-13T00:08:02.659Z,1021.73
2022-10-13T00:09:02.679Z,1021.72
2022-10-13T00:10:02.558Z,1021.76
2022-10-13T00:11:02.588Z,1021.69
2022-10-13T00:12:02.520Z,1021.71
2022-10-13T00:13:02.562Z,1021.68
2022-10-13T00:14:02.541Z,1021.60
2022-10-13T00:15:02.571Z,1021.63
2022-10-13T00:16:02.653Z,1021.62
2022-10-13T00:17:02.493Z,1021.63
2022-10-13T00:18:02.477Z,1021.64
2022-10-13T00:19:02.535Z,1021.59
2022-10-13T00:20:02.492Z,1021.64
2022-10-13T00:21:02.502Z,1021.60
2022-10-13T00:22:02.486Z,1021.61
2022-10-13T00:23:02.433Z,1021.60
2022-10-13T00:24:02.480Z,1021.59
2022-10-13T00:25:02.463Z,1021.57
2022-10-13T00:26:02.479Z,1021.57
2022-10-13T00:27:02.386Z,1021.56
2022-10-13T00:28:02.505Z,1021.55
2022-10-13T00:29:02.466Z,1021.59
2022-10-13T00:30:02.511Z,1021.56
2022-10-13T00:31:02.419Z,1021.62
2022-10-13T00:32:02.339Z,1021.60
2022-10-13T00:33:02.351Z,1021.59
2022-10-13T00:34:02.397Z,1021.52
2022-10-13T00:35:02.329Z,1021.54
2022-10-13T00:36:02.382Z,1021.54
2022-10-13T00:37:02.303Z,1021.59
2022-10-13T00:38:02.285Z,1021.53
2022-10-13T00:39:02.508Z,1021.53
2022-10-13T00:40:02.282Z,1021.53
2022-10-13T00:41:02.315Z,1021.57
2022-10-13T00:42:02.305Z,1021.51
2022-10-13T00:43:02.339Z,1021.55
2022-10-13T00:44:02.239Z,1021.48
2022-10-13T00:45:02.189Z,1021.41
2022-10-13T00:46:02.268Z,1021.46
2022-10-13T00:47:02.269Z,1021.41
2022-10-13T00:48:02.158Z,1021.34
2022-10-13T00:49:02.287Z,1021.34
2022-10-13T00:50:02.129Z,1021.34
2022-10-13T00:51:02.108Z,1021.28
2022-10-13T00:52:02.112Z,1021.26
2022-10-13T00:53:02.237Z,1021.25
2022-10-13T00:54:02.153Z,1021.21
2022-10-13T00:55:02.168Z,1021.25
2022-10-13T00:56:02.121Z,1021.27
2022-10-13T00:57:02.085Z,1021.30
2022-10-13T00:58:05.137Z,1021.30
2022-10-13T00:59:02.109Z,1021.37
2022-10-13T01:00:02.150Z,1021.35
2022-10-13T01:01:02.089Z,1021.31
2022-10-13T01:02:02.014Z,1021.29
2022-10-13T01:03:02.004Z,1021.30
2022-10-13T01:04:02.067Z,1021.27
2022-10-13T01:05:01.983Z,1021.31
2022-10-13T01:06:01.984Z,1021.27
2022-10-13T01:07:02.046Z,1021.28
2022-10-13T01:08:01.996Z,1021.26
2022-10-13T01:09:02.050Z,1021.17
2022-10-13T01:10:01.963Z,1021.21
2022-10-13T01:11:01.897Z,1021.17
2022-10-13T01:12:01.956Z,1021.15
2022-10-13T01:13:01.905Z,1021.19
2022-10-13T01:14:01.924Z,1021.18
2022-10-13T01:15:01.927Z,1021.15
2022-10-13T01:16:01.896Z,1021.13
2022-10-13T01:17:01.874Z,1021.15
2022-10-13T01:18:01.896Z,1021.12
2022-10-13T01:19:01.824Z,1021.12
2022-10-13T01:20:01.844Z,1021.04
2022-10-13T01:21:01.905Z,1021.07
2022-10-13T01:22:01.885Z,1021.06
2022-10-13T01:23:01.891Z,1021.02
2022-10-13T01:24:01.897Z,1021.03
2022-10-13T01:25:01.848Z,1021.02
2022-10-13T01:26:01.785Z,1021.03
2022-10-13T01:27:01.822Z,1021.06
2022-10-13T01:28:01.789Z,1021.04
2022-10-13T01:29:01.786Z,1021.04
2022-10-13T01:30:01.768Z,1021.08
2022-10-13T01:31:01.803Z,1021.04
2022-10-13T01:32:01.685Z,1021.09
2022-10-13T01:33:01.708Z,1021.10
2022-10-13T01:34:01.691Z,1021.08
2022-10-13T01:35:01.655Z,1021.09
2022-10-13T01:36:01.698Z,1020.94
2022-10-13T01:37:01.618Z,1020.99
2022-10-13T01:38:01.676Z,1020.97
2022-10-13T01:39:01.602Z,1020.95
2022-10-13T01:40:01.642Z,1020.91
2022-10-13T01:41:01.692Z,1020.89
2022-10-13T01:42:01.640Z,1020.83
2022-10-13T01:43:01.718Z,1020.86
2022-10-13T01:44:01.567Z,1020.84
2022-10-13T01:45:01.576Z,1020.86
2022-10-13T01:46:01.587Z,1020.85
2022-10-13T01:47:01.603Z,1020.86
2022-10-13T01:48:01.507Z,1020.82
2022-10-13T01:49:01.603Z,1020.82
2022-10-13T01:50:01.494Z,1020.74
2022-10-13T01:51:01.569Z,1020.67
2022-10-13T01:52:01.535Z,1020.69
2022-10-13T01:53:01.500Z,1020.61
2022-10-13T01:54:01.504Z,1020.60
2022-10-13T01:55:01.462Z,1020.57
2022-10-13T01:56:01.456Z,1020.50
2022-10-13T01:57:01.483Z,1020.48
2022-10-13T01:58:01.493Z,1020.49
2022-10-13T01:59:01.483Z,1020.47
2022-10-13T02:00:01.512Z,1020.37
2022-10-13T02:01:01.427Z,1020.31
2022-10-13T02:02:01.445Z,1020.34
2022-10-13T02:03:01.382Z,1020.30
2022-10-13T02:04:01.397Z,1020.26
2022-10-13T02:05:01.429Z,1020.24
2022-10-13T02:06:01.350Z,1020.31
2022-10-13T02:07:01.382Z,1020.26
2022-10-13T02:08:01.332Z,1020.26
2022-10-13T02:09:01.287Z,1020.16
2022-10-13T02:10:01.311Z,1020.28
2022-10-13T02:11:01.326Z,1020.15
2022-10-13T02:12:01.336Z,1020.18
2022-10-13T02:13:01.274Z,1020.24
2022-10-13T02:14:01.277Z,1020.21
2022-10-13T02:15:01.257Z,1020.24
2022-10-13T02:16:01.196Z,1020.21
2022-10-13T02:17:01.238Z,1020.16
2022-10-13T02:18:01.219Z,1020.18
2022-10-13T02:19:01.200Z,1020.15
2022-10-13T02:20:01.237Z,1020.15
2022-10-13T02:21:01.196Z,1020.15
2022-10-13T02:22:01.169Z,1020.08
2022-10-13T02:23:01.168Z,1020.14
2022-10-13T02:24:01.137Z,1020.15
2022-10-13T02:25:01.163Z,1020.22
2022-10-13T02:26:01.117Z,1020.17
2022-10-13T02:27:01.224Z,1020.21
2022-10-13T02:28:01.175Z,1020.16
2022-10-13T02:29:01.123Z,1020.20
2022-10-13T02:30:01.094Z,1020.19
2022-10-13T02:31:01.051Z,1020.18
2022-10-13T02:32:01.030Z,1020.14
2022-10-13T02:33:01.205Z,1020.10
2022-10-13T02:34:01.643Z,1020.13
2022-10-13T02:35:01.008Z,1020.16
2022-10-13T03:19:30.335Z,1020.07
2022-10-13T03:24:24.021Z,1019.95
2022-10-13T03:37:11.938Z,1019.72
2022-10-13T03:43:06.998Z,1019.64
2022-10-13T03:44:15.246Z,1019.59
2022-10-13T03:47:30.134Z,1019.60
2022-10-13T03:48:42.025Z,1019.59
2022-10-13T03:49:27.347Z,1019.63
2022-10-13T03:50:32.461Z,1019.65
2022-10-13T03:51:39.733Z,1019.61
2022-10-13T03:52:26.815Z,1019.54
2022-10-13T03:57:34.998Z,1019.50
2022-10-13T03:59:00.977Z,1019.48
2022-10-13T04:06:02.493Z,1019.36
2022-10-13T04:07:30.648Z,1019.36
2022-10-13T04:07:57.545Z,1019.35
2022-10-13T04:09:11.250Z,1019.37
2022-10-13T04:10:11.158Z,1019.33
2022-10-13T04:11:01.242Z,1019.38
2022-10-13T04:12:05.006Z,1019.31
2022-10-13T04:44:26.758Z,1019.25
2022-10-13T05:02:04.589Z,1018.94
2022-10-13T05:19:03.625Z,1018.83
2022-10-13T05:26:06.379Z,1018.67
2022-10-13T05:26:28.914Z,1018.63
2022-10-13T05:33:19.950Z,1018.71
2022-10-13T05:37:05.673Z,1018.67
2022-10-13T05:58:17.806Z,1018.58
2022-10-13T05:59:26.770Z,1018.60
2022-10-13T06:00:19.588Z,1018.59
2022-10-13T06:01:44.841Z,1018.55
2022-10-13T06:02:34.287Z,1018.58
2022-10-13T06:03:31.486Z,1018.59
2022-10-13T06:15:25.651Z,1018.51
2022-10-13T06:20:33.669Z,1018.51
2022-10-13T06:25:09.575Z,1018.50
2022-10-13T07:29:03.279Z,1018.18
2022-10-13T08:46:25.304Z,1017.95
2022-10-13T08:47:55.531Z,1017.98
2022-10-13T09:24:36.897Z,1017.80
2022-10-13T09:25:36.847Z,1017.88
2022-10-13T09:26:36.837Z,1017.81
2022-10-13T09:27:36.850Z,1017.88
2022-10-13T09:28:36.901Z,1017.89
2022-10-13T09:29:36.849Z,1017.87
2022-10-13T09:30:36.798Z,1017.87
2022-10-13T09:31:36.803Z,1017.84
2022-10-13T09:32:36.788Z,1017.87
2022-10-13T09:33:36.801Z,1017.84
2022-10-13T09:34:36.770Z,1017.87
2022-10-13T09:35:36.797Z,1017.87
2022-10-13T09:36:36.741Z,1017.88
2022-10-13T09:37:36.728Z,1017.92
2022-10-13T09:38:36.720Z,1017.82
2022-10-13T09:39:36.723Z,1017.79
2022-10-13T09:40:36.731Z,1017.85
2022-10-13T09:41:36.688Z,1017.80
2022-10-13T09:42:36.675Z,1017.80
2022-10-13T09:43:36.664Z,1017.79
2022-10-13T09:44:36.657Z,1017.71
2022-10-13T09:45:36.672Z,1017.73
2022-10-13T09:46:36.631Z,1017.70
2022-10-13T09:47:36.623Z,1017.68
2022-10-13T09:48:36.613Z,1017.68
2022-10-13T09:49:36.591Z,1017.64
2022-10-13T09:50:36.615Z,1017.72
2022-10-13T09:51:36.581Z,1017.73
2022-10-13T09:52:36.591Z,1017.75
2022-10-13T09:53:36.568Z,1017.68
2022-10-13T09:54:36.535Z,1017.69
2022-10-13T09:55:36.576Z,1017.72
2022-10-13T09:56:36.543Z,1017.75
2022-10-13T09:57:36.516Z,1017.73
2022-10-13T09:58:36.558Z,1017.70
2022-10-13T09:59:36.495Z,1017.71
2022-10-13T10:00:36.528Z,1017.70
2022-10-13T10:01:36.477Z,1017.66
2022-10-13T10:02:36.477Z,1017.68
2022-10-13T10:03:36.473Z,1017.65
2022-10-13T10:04:36.436Z,1017.64
2022-10-13T10:05:36.427Z,1017.69
2022-10-13T10:06:36.437Z,1017.70
2022-10-13T10:07:36.437Z,1017.65
2022-10-13T10:08:58.144Z,1017.60
2022-10-13T10:09:37.403Z,1017.56
2022-10-13T10:10:36.370Z,1017.51
2022-10-13T10:11:36.418Z,1017.57
2022-10-13T10:12:36.358Z,1017.53
2022-10-13T10:13:36.347Z,1017.58
2022-10-13T10:14:36.336Z,1017.49
2022-10-13T10:15:36.338Z,1017.52
2022-10-13T10:16:36.305Z,1017.49
2022-10-13T10:17:36.331Z,1017.48
2022-10-13T10:18:36.299Z,1017.50
2022-10-13T10:19:36.315Z,1017.49
2022-10-13T10:20:36.312Z,1017.55
2022-10-13T10:21:36.252Z,1017.48
2022-10-13T10:22:36.251Z,1017.44
2022-10-13T10:23:36.260Z,1017.39
2022-10-13T10:24:36.224Z,1017.33
2022-10-13T10:25:36.221Z,1017.25
2022-10-13T10:26:36.218Z,1017.36
2022-10-13T10:27:38.922Z,1017.33
2022-10-13T10:28:37.225Z,1017.31
2022-10-13T10:29:36.182Z,1017.33
2022-10-13T10:30:36.159Z,1017.30
2022-10-13T10:31:36.157Z,1017.27
2022-10-13T10:32:36.126Z,1017.28
2022-10-13T10:33:36.169Z,1017.27
2022-10-13T10:34:36.111Z,1017.19
2022-10-13T10:35:36.115Z,1017.22
2022-10-13T10:36:36.093Z,1017.19
2022-10-13T10:37:36.092Z,1017.21
2022-10-13T10:38:36.074Z,1017.18
2022-10-13T10:39:36.092Z,1017.19
2022-10-13T10:40:36.066Z,1017.16
2022-10-13T10:41:36.044Z,1017.17
2022-10-13T10:42:36.040Z,1017.17
2022-10-13T10:43:36.025Z,1017.16
2022-10-13T10:44:36.123Z,1017.21
2022-10-13T10:45:36.018Z,1017.15
2022-10-13T10:46:35.984Z,1017.15
2022-10-13T10:47:35.966Z,1017.14
2022-10-13T10:48:35.983Z,1017.16
2022-10-13T10:49:35.947Z,1017.01
2022-10-13T10:50:35.970Z,1017.06
2022-10-13T10:51:35.931Z,1017.03
2022-10-13T10:52:35.926Z,1017.03
2022-10-13T10:53:35.896Z,1017.08
2022-10-13T10:54:35.923Z,1017.04
2022-10-13T10:55:35.898Z,1017.00
2022-10-13T10:56:35.879Z,1016.96
2022-10-13T10:57:35.867Z,1016.93
2022-10-13T10:58:35.849Z,1016.95
2022-10-13T10:59:35.885Z,1016.98
2022-10-13T11:00:35.832Z,1017.06
2022-10-13T11:01:35.851Z,1017.02
2022-10-13T11:02:35.811Z,1017.08
2022-10-13T11:03:35.810Z,1017.02
2022-10-13T11:04:35.811Z,1017.02
2022-10-13T11:05:35.780Z,1017.02
2022-10-13T11:06:35.772Z,1017.00
2022-10-13T11:07:35.750Z,1016.96
2022-10-13T11:08:35.768Z,1016.95
2022-10-13T11:09:35.731Z,1016.94
2022-10-13T11:10:35.734Z,1016.95
2022-10-13T11:11:37.771Z,1016.86
2022-10-13T11:12:35.701Z,1016.83
2022-10-13T11:13:35.704Z,1016.83
2022-10-13T11:14:35.679Z,1016.83
2022-10-13T11:15:35.715Z,1016.85
2022-10-13T11:16:35.664Z,1016.89
2022-10-13T11:17:35.644Z,1016.81
2022-10-13T11:18:35.653Z,1016.85
2022-10-13T11:19:35.624Z,1016.78
2022-10-13T11:20:35.636Z,1016.81
2022-10-13T11:21:35.605Z,1016.73
2022-10-13T11:22:35.587Z,1016.73
2022-10-13T11:23:35.585Z,1016.70
2022-10-13T11:24:35.568Z,1016.63
2022-10-13T11:25:35.567Z,1016.60
2022-10-13T11:26:35.579Z,1016.61
2022-10-13T11:27:35.534Z,1016.60
2022-10-13T11:28:35.577Z,1016.53
2022-10-13T11:29:35.516Z,1016.50
2022-10-13T11:30:35.508Z,1016.53
2022-10-13T11:31:36.279Z,1016.46
2022-10-13T11:32:35.490Z,1016.49
2022-10-13T11:33:35.490Z,1016.50
2022-10-13T11:34:35.459Z,1016.50
2022-10-13T11:35:35.469Z,1016.44
2022-10-13T11:36:35.454Z,1016.49
2022-10-13T11:37:35.449Z,1016.48
2022-10-13T11:38:35.418Z,1016.49
2022-10-13T11:39:35.429Z,1016.50
2022-10-13T11:40:35.402Z,1016.49
2022-10-13T11:41:35.401Z,1016.45
2022-10-13T11:42:35.408Z,1016.50
2022-10-13T11:43:35.368Z,1016.53
2022-10-13T11:44:35.371Z,1016.65
2022-10-13T11:45:35.344Z,1016.59
2022-10-13T11:46:35.348Z,1016.61
2022-10-13T11:47:35.340Z,1016.64
2022-10-13T11:48:35.355Z,1016.63
2022-10-13T11:49:35.304Z,1016.62
2022-10-13T11:50:35.312Z,1016.65
2022-10-13T11:51:35.281Z,1016.67
2022-10-13T11:52:35.285Z,1016.67
2022-10-13T11:53:35.267Z,1016.61
2022-10-13T11:54:35.283Z,1016.66
2022-10-13T11:55:35.241Z,1016.70
2022-10-13T11:56:39.420Z,1016.60
2022-10-13T11:57:35.221Z,1016.65
2022-10-13T11:58:35.211Z,1016.65
2022-10-13T11:59:35.220Z,1016.67
2022-10-13T12:00:35.223Z,1016.66
2022-10-13T12:01:35.194Z,1016.71
2022-10-13T12:02:35.205Z,1016.68
2022-10-13T12:03:35.167Z,1016.67
2022-10-13T12:04:35.147Z,1016.69
2022-10-13T12:05:35.174Z,1016.64
2022-10-13T12:06:35.135Z,1016.60
2022-10-13T12:07:35.105Z,1016.55
2022-10-13T12:08:35.118Z,1016.62
2022-10-13T12:09:35.097Z,1016.69
2022-10-13T12:10:35.120Z,1016.63
2022-10-13T12:11:35.079Z,1016.66
2022-10-13T12:12:35.078Z,1016.66
2022-10-13T12:13:35.038Z,1016.66
2022-10-13T12:14:35.058Z,1016.58
2022-10-13T12:15:35.085Z,1016.59
2022-10-13T12:16:35.017Z,1016.57
2022-10-13T12:17:35.015Z,1016.53
2022-10-13T12:18:35.119Z,1016.58
2022-10-13T12:19:34.985Z,1016.51
2022-10-13T12:20:34.990Z,1016.54
2022-10-13T12:21:34.941Z,1016.60
2022-10-13T12:22:40.025Z,1016.59
2022-10-13T12:23:35.945Z,1016.54
2022-10-13T12:24:34.908Z,1016.58
2022-10-13T12:25:34.930Z,1016.53
2022-10-13T12:26:34.935Z,1016.52
2022-10-13T12:27:34.901Z,1016.47
2022-10-13T12:28:34.919Z,1016.41
2022-10-13T12:29:37.342Z,1016.34
2022-10-13T12:30:34.862Z,1016.33
2022-10-13T12:31:34.870Z,1016.36
2022-10-13T12:32:34.843Z,1016.33
2022-10-13T12:33:34.842Z,1016.30
2022-10-13T12:34:34.833Z,1016.34
2022-10-13T12:35:34.810Z,1016.30
2022-10-13T12:36:34.838Z,1016.26
2022-10-13T12:37:34.801Z,1016.34
2022-10-13T12:38:34.783Z,1016.35
2022-10-13T12:39:34.763Z,1016.37
2022-10-13T12:40:34.761Z,1016.34
2022-10-13T12:41:34.775Z,1016.38
2022-10-13T12:42:34.753Z,1016.40
2022-10-13T12:43:34.735Z,1016.30
2022-10-13T12:44:34.712Z,1016.37
2022-10-13T12:45:34.713Z,1016.43
2022-10-13T12:46:34.733Z,1016.42
2022-10-13T12:47:34.721Z,1016.42
2022-10-13T12:48:34.675Z,1016.42
2022-10-13T12:49:34.685Z,1016.42
2022-10-13T12:50:34.664Z,1016.35
2022-10-13T12:51:34.680Z,1016.37
2022-10-13T12:52:34.642Z,1016.39
2022-10-13T12:53:34.625Z,1016.41
2022-10-13T12:54:34.597Z,1016.42
2022-10-13T12:55:34.594Z,1016.38
2022-10-13T12:56:34.599Z,1016.37
2022-10-13T12:57:34.607Z,1016.38
2022-10-13T12:58:34.575Z,1016.36
2022-10-13T12:59:34.565Z,1016.37
2022-10-13T13:00:34.606Z,1016.37
2022-10-13T13:01:34.552Z,1016.35
2022-10-13T13:02:34.527Z,1016.37
2022-10-13T13:03:34.567Z,1016.37
2022-10-13T13:04:34.488Z,1016.35
2022-10-13T13:05:34.489Z,1016.32
2022-10-13T13:06:34.479Z,1016.37
2022-10-13T13:07:34.475Z,1016.37
2022-10-13T13:08:34.470Z,1016.37
2022-10-13T13:09:34.455Z,1016.37
2022-10-13T13:10:34.434Z,1016.35
2022-10-13T13:11:34.429Z,1016.36
2022-10-13T13:12:34.443Z,1016.40
2022-10-13T13:13:34.403Z,1016.37
2022-10-13T13:14:34.423Z,1016.42
2022-10-13T13:15:34.371Z,1016.33
2022-10-13T13:16:34.362Z,1016.40
2022-10-13T13:18:35.343Z,1016.31
2022-10-13T13:19:34.363Z,1016.29
2022-10-13T13:20:34.312Z,1016.33
2022-10-13T13:21:34.343Z,1016.35
2022-10-13T13:22:34.357Z,1016.30
2022-10-13T13:23:34.295Z,1016.32
2022-10-13T13:24:41.386Z,1016.33
2022-10-13T13:25:35.309Z,1016.31
2022-10-13T13:26:34.258Z,1016.25
2022-10-13T13:27:34.254Z,1016.25
2022-10-13T13:28:34.303Z,1016.23
2022-10-13T13:29:34.280Z,1016.23
2022-10-13T13:30:34.215Z,1016.32
2022-10-13T13:31:34.221Z,1016.23
2022-10-13T13:32:34.207Z,1016.26
2022-10-13T13:33:34.196Z,1016.23
2022-10-13T13:34:34.203Z,1016.16
2022-10-13T13:35:34.172Z,1016.19
2022-10-13T13:36:34.156Z,1016.16
2022-10-13T13:37:34.178Z,1016.23
2022-10-13T13:38:34.130Z,1016.17
2022-10-13T13:39:34.146Z,1016.21
2022-10-13T13:40:34.131Z,1016.19
2022-10-13T13:41:34.111Z,1016.14
2022-10-13T13:42:34.103Z,1016.22
2022-10-13T13:43:34.082Z,1016.15
2022-10-13T13:44:34.097Z,1016.13
2022-10-13T13:45:34.070Z,1016.10
2022-10-13T13:46:34.042Z,1016.08
2022-10-13T13:47:34.032Z,1016.11
2022-10-13T13:48:34.032Z,1016.05
2022-10-13T13:49:34.032Z,1016.09
2022-10-13T13:50:34.010Z,1016.07
2022-10-13T13:51:34.008Z,1016.11
2022-10-13T13:52:33.980Z,1016.05
2022-10-13T13:53:33.991Z,1016.10
2022-10-13T13:54:34.000Z,1016.13
2022-10-13T13:55:33.950Z,1016.18
2022-10-13T13:56:33.932Z,1016.17
2022-10-13T13:57:33.948Z,1016.20
2022-10-13T13:58:33.922Z,1016.09
2022-10-13T13:59:33.990Z,1016.16
2022-10-13T14:00:33.905Z,1016.11
2022-10-13T14:01:33.918Z,1016.17
2022-10-13T14:02:33.873Z,1016.09
2022-10-13T14:03:33.870Z,1016.10
2022-10-13T14:04:33.872Z,1016.09
2022-10-13T14:05:33.847Z,1016.05
2022-10-13T14:06:33.825Z,1016.09
2022-10-13T14:07:33.834Z,1016.12
2022-10-13T14:08:33.897Z,1016.10
2022-10-13T14:09:33.876Z,1016.09
2022-10-13T14:10:33.783Z,1016.08
2022-10-13T14:11:33.780Z,1016.04
2022-10-13T14:12:33.772Z,1016.02
2022-10-13T14:13:33.754Z,1016.03
2022-10-13T14:14:33.746Z,1015.99
2022-10-13T14:15:33.804Z,1016.04
2022-10-13T14:16:33.726Z,1016.00
2022-10-13T14:17:33.706Z,1015.97
2022-10-13T14:18:33.697Z,1015.99
2022-10-13T14:19:33.696Z,1015.96
2022-10-13T14:20:33.729Z,1015.94
2022-10-13T14:21:33.687Z,1015.94
2022-10-13T14:22:33.671Z,1015.90
2022-10-13T14:23:33.659Z,1015.96
2022-10-13T14:24:33.637Z,1015.88
2022-10-13T14:25:33.749Z,1015.89
2022-10-13T14:26:33.622Z,1015.91
2022-10-13T14:27:33.608Z,1015.90
2022-10-13T14:28:33.621Z,1015.93
2022-10-13T14:29:33.579Z,1015.93
2022-10-13T14:30:33.581Z,1015.95
2022-10-13T14:31:33.590Z,1015.90
2022-10-13T14:32:33.551Z,1015.89
2022-10-13T14:33:33.538Z,1015.89
2022-10-13T14:34:33.567Z,1015.94
2022-10-13T14:35:33.523Z,1015.89
2022-10-13T14:36:33.558Z,1015.90
2022-10-13T14:37:34.286Z,1015.93
2022-10-13T14:38:33.506Z,1015.92
2022-10-13T14:39:33.494Z,1015.96
2022-10-13T14:40:33.461Z,1015.92
2022-10-13T14:41:33.515Z,1015.96
2022-10-13T14:42:33.445Z,1015.96
2022-10-13T14:43:33.458Z,1015.94
2022-10-13T14:44:33.424Z,1015.87
2022-10-13T14:45:33.412Z,1015.93
2022-10-13T14:46:33.453Z,1015.97
2022-10-13T14:47:33.393Z,1015.89
2022-10-13T14:48:33.383Z,1015.91
2022-10-13T14:49:33.365Z,1015.89
2022-10-13T14:50:33.369Z,1015.92
2022-10-13T14:51:33.364Z,1015.90
2022-10-13T14:52:33.385Z,1015.97
2022-10-13T14:53:33.352Z,1015.91
2022-10-13T14:54:33.323Z,1015.88
2022-10-13T14:55:33.318Z,1015.86
2022-10-13T14:56:33.286Z,1015.86
2022-10-13T14:57:33.325Z,1015.86
2022-10-13T14:58:33.287Z,1015.85
2022-10-13T14:59:33.270Z,1015.92
2022-10-13T15:00:33.260Z,1015.89
2022-10-13T15:01:33.252Z,1015.89
2022-10-13T15:02:33.268Z,1015.87
2022-10-13T15:03:33.282Z,1015.84
2022-10-13T15:04:33.198Z,1015.82
2022-10-13T15:05:33.206Z,1015.85
2022-10-13T15:06:33.200Z,1015.80
2022-10-13T15:07:33.238Z,1015.83
2022-10-13T15:08:33.147Z,1015.83
2022-10-13T15:09:45.425Z,1015.86
2022-10-13T15:10:34.152Z,1015.83
2022-10-13T15:11:33.163Z,1015.78
2022-10-13T15:12:33.121Z,1015.79
2022-10-13T15:13:33.140Z,1015.81
2022-10-13T15:14:33.114Z,1015.79
2022-10-13T15:15:33.097Z,1015.80
2022-10-13T15:16:33.077Z,1015.80
2022-10-13T15:17:33.063Z,1015.81
2022-10-13T15:18:33.063Z,1015.84
2022-10-13T15:19:33.100Z,1015.81
2022-10-13T15:20:33.027Z,1015.79
2022-10-13T15:21:33.032Z,1015.90
2022-10-13T15:22:33.012Z,1015.80
2022-10-13T15:23:33.018Z,1015.85
2022-10-13T15:24:33.002Z,1015.80
2022-10-13T15:25:33.004Z,1015.86
2022-10-13T15:26:32.974Z,1015.79
2022-10-13T15:27:34.276Z,1015.80
2022-10-13T15:28:32.954Z,1015.84
2022-10-13T15:29:32.931Z,1015.78
2022-10-13T15:30:32.982Z,1015.82
2022-10-13T15:31:32.904Z,1015.84
2022-10-13T15:32:32.895Z,1015.83
2022-10-13T15:33:32.897Z,1015.80
2022-10-13T15:34:32.885Z,1015.86
2022-10-13T15:35:32.927Z,1015.77
2022-10-13T15:36:32.865Z,1015.83
2022-10-13T15:37:32.864Z,1015.79
2022-10-13T15:38:32.834Z,1015.80
2022-10-13T15:39:32.838Z,1015.82
2022-10-13T15:40:32.868Z,1015.81
2022-10-13T15:41:32.807Z,1015.80
2022-10-13T15:42:32.812Z,1015.75
2022-10-13T15:43:32.792Z,1015.76
2022-10-13T15:44:50.951Z,1015.71
2022-10-13T15:45:33.806Z,1015.70
2022-10-13T15:46:32.772Z,1015.75
2022-10-13T15:47:32.747Z,1015.70
2022-10-13T15:48:32.739Z,1015.80
2022-10-13T15:49:32.730Z,1015.77
2022-10-13T15:50:32.707Z,1015.73
2022-10-13T15:51:32.756Z,1015.73
2022-10-13T15:52:35.107Z,1015.78
2022-10-13T15:53:32.693Z,1015.72
2022-10-13T15:54:32.678Z,1015.67
2022-10-13T15:55:32.650Z,1015.73
2022-10-13T15:56:32.667Z,1015.73
2022-10-13T15:57:32.677Z,1015.66
2022-10-13T15:58:32.644Z,1015.79
2022-10-13T15:59:32.607Z,1015.74
2022-10-13T16:00:32.667Z,1015.75
2022-10-13T16:01:32.600Z,1015.82
2022-10-13T16:02:32.582Z,1015.75
2022-10-13T16:03:32.602Z,1015.72
2022-10-13T16:04:37.251Z,1015.71
2022-10-13T16:05:33.552Z,1015.74
2022-10-13T16:06:32.557Z,1015.73
2022-10-13T16:07:32.532Z,1015.68
2022-10-13T16:08:32.524Z,1015.73
2022-10-13T16:09:32.571Z,1015.70
2022-10-13T16:10:32.517Z,1015.69
2022-10-13T16:11:32.492Z,1015.70
2022-10-13T16:12:32.475Z,1015.71
2022-10-13T16:13:32.477Z,1015.69
2022-10-13T16:14:32.454Z,1015.73
2022-10-13T16:15:32.495Z,1015.68
2022-10-13T16:16:32.435Z,1015.70
2022-10-13T16:17:32.467Z,1015.70
2022-10-13T16:18:32.417Z,1015.68
2022-10-13T16:19:32.421Z,1015.69
2022-10-13T16:20:32.407Z,1015.62
2022-10-13T16:21:32.373Z,1015.67
2022-10-13T16:22:32.379Z,1015.70
2022-10-13T16:23:32.406Z,1015.65
2022-10-13T16:24:32.362Z,1015.65
2022-10-13T16:25:32.342Z,1015.67
2022-10-13T16:26:32.328Z,1015.71
2022-10-13T16:27:32.325Z,1015.72
2022-10-13T16:28:32.341Z,1015.67
2022-10-13T16:29:32.398Z,1015.68
2022-10-13T16:30:32.289Z,1015.69
2022-10-13T16:31:34.146Z,1015.71
2022-10-13T16:32:32.257Z,1015.73
2022-10-13T16:33:32.269Z,1015.66
2022-10-13T16:34:32.258Z,1015.68
2022-10-13T16:35:32.288Z,1015.76
2022-10-13T16:36:32.222Z,1015.66
2022-10-13T16:37:32.210Z,1015.66
2022-10-13T16:38:32.199Z,1015.66
2022-10-13T16:39:32.199Z,1015.63
2022-10-13T16:40:32.171Z,1015.65
2022-10-13T16:41:32.219Z,1015.62
2022-10-13T16:42:32.150Z,1015.58
2022-10-13T16:43:32.151Z,1015.62
2022-10-13T16:44:32.144Z,1015.65
2022-10-13T16:45:55.150Z,1015.62
2022-10-13T16:46:33.175Z,1015.64
2022-10-13T16:47:32.100Z,1015.64
2022-10-13T16:48:32.098Z,1015.56
2022-10-13T16:49:32.065Z,1015.60
2022-10-13T16:50:32.064Z,1015.60
2022-10-13T16:51:32.059Z,1015.61
2022-10-13T16:52:32.063Z,1015.61
2022-10-13T16:53:32.037Z,1015.62
2022-10-13T16:54:32.033Z,1015.67
2022-10-13T16:55:32.034Z,1015.65
2022-10-13T16:56:31.983Z,1015.54
2022-10-13T16:57:32.009Z,1015.60
2022-10-13T16:58:32.008Z,1015.61
2022-10-13T16:59:31.977Z,1015.60
2022-10-13T17:00:32.039Z,1015.56
2022-10-13T17:01:31.945Z,1015.57
2022-10-13T17:02:31.939Z,1015.56
2022-10-13T17:03:31.948Z,1015.62
2022-10-13T17:04:31.928Z,1015.54
2022-10-13T17:05:31.916Z,1015.52
2022-10-13T17:06:31.893Z,1015.51
2022-10-13T17:07:31.891Z,1015.54
2022-10-13T17:08:31.876Z,1015.58
2022-10-13T17:09:31.908Z,1015.53
2022-10-13T17:10:31.868Z,1015.59
2022-10-13T17:11:31.865Z,1015.53
2022-10-13T17:12:31.838Z,1015.53
2022-10-13T17:13:31.831Z,1015.53
2022-10-13T17:14:31.812Z,1015.52
2022-10-13T17:15:31.818Z,1015.52
2022-10-13T17:16:31.778Z,1015.54
2022-10-13T17:17:31.777Z,1015.46
2022-10-13T17:18:31.766Z,1015.44
2022-10-13T17:19:31.750Z,1015.53
2022-10-13T17:20:31.729Z,1015.52
2022-10-13T17:21:31.750Z,1015.47
2022-10-13T17:22:31.709Z,1015.56
2022-10-13T17:23:31.732Z,1015.51
2022-10-13T17:24:31.696Z,1015.53
2022-10-13T17:25:31.681Z,1015.55
2022-10-13T17:26:31.725Z,1015.52
2022-10-13T17:27:31.680Z,1015.50
2022-10-13T17:28:31.685Z,1015.48
2022-10-13T17:29:31.650Z,1015.49
2022-10-13T17:30:31.653Z,1015.51
2022-10-13T17:31:31.625Z,1015.53
2022-10-13T17:32:31.653Z,1015.55
2022-10-13T17:33:31.616Z,1015.56
2022-10-13T17:34:31.600Z,1015.52
2022-10-13T17:35:31.583Z,1015.55
2022-10-13T17:36:31.568Z,1015.57
2022-10-13T17:37:31.567Z,1015.52
2022-10-13T17:38:31.605Z,1015.53
2022-10-13T17:39:31.548Z,1015.55
2022-10-13T17:40:31.515Z,1015.54
2022-10-13T17:41:31.537Z,1015.53
2022-10-13T17:42:31.497Z,1015.62
2022-10-13T17:43:31.508Z,1015.59
2022-10-13T17:44:31.505Z,1015.61
2022-10-13T17:45:31.478Z,1015.53
2022-10-13T17:46:36.906Z,1015.51
2022-10-13T17:47:32.464Z,1015.55
2022-10-13T17:48:31.453Z,1015.62
2022-10-13T17:49:31.468Z,1015.58
2022-10-13T17:50:31.419Z,1015.53
2022-10-13T17:51:31.418Z,1015.56
2022-10-13T17:52:31.400Z,1015.58
2022-10-13T17:53:31.389Z,1015.48
2022-10-13T17:54:31.371Z,1015.49
2022-10-13T17:55:31.389Z,1015.50
2022-10-13T17:56:31.350Z,1015.54
2022-10-13T17:57:31.369Z,1015.49
2022-10-13T17:58:31.337Z,1015.57
2022-10-13T17:59:31.372Z,1015.51
2022-10-13T18:00:36.592Z,1015.49
2022-10-13T18:01:32.416Z,1015.51
2022-10-13T18:02:31.271Z,1015.50
2022-10-13T18:03:31.282Z,1015.49
2022-10-13T18:04:31.261Z,1015.46
2022-10-13T18:05:31.251Z,1015.46
2022-10-13T18:06:36.913Z,1015.47
2022-10-13T18:07:32.250Z,1015.50
2022-10-13T18:08:31.213Z,1015.51
2022-10-13T18:09:31.225Z,1015.51
2022-10-13T18:10:37.015Z,1015.45
2022-10-13T18:11:32.345Z,1015.47
2022-10-13T18:12:31.173Z,1015.44
2022-10-13T18:13:31.196Z,1015.46
2022-10-13T18:14:31.170Z,1015.50
2022-10-13T18:15:31.141Z,1015.42